sensor_id;sensor_type;location;lat;lon;timestamp;temperature;humidity
24518;DHT22;12678;51.336;12.406;2023-05-31T00:02:01;15.20;89.30
24518;DHT22;12678;51.336;12.406;2023-05-31T00:04:27;15.20;89.50
24518;DHT22;12678;51.336;12.406;2023-05-31T00:06:53;15.10;89.30
24518;DHT22;12678;51.336;12.406;2023-05-31T00:09:18;15.10;89.30
24518;DHT22;12678;51.336;12.406;2023-05-31T00:11:44;15.00;89.20
24518;DHT22;12678;51.336;12.406;2023-05-31T00:14:10;15.00;89.40
24518;DHT22;12678;51.336;12.406;2023-05-31T00:16:36;14.90;89.80
24518;DHT22;12678;51.336;12.406;2023-05-31T00:19:02;14.90;89.80
24518;DHT22;12678;51.336;12.406;2023-05-31T00:21:28;14.80;90.00
24518;DHT22;12678;51.336;12.406;2023-05-31T00:23:53;14.80;90.20
24518;DHT22;12678;51.336;12.406;2023-05-31T00:26:19;14.80;90.10
24518;DHT22;12678;51.336;12.406;2023-05-31T00:28:45;14.80;90.20
24518;DHT22;12678;51.336;12.406;2023-05-31T00:31:10;14.80;90.20
24518;DHT22;12678;51.336;12.406;2023-05-31T00:33:36;14.80;90.30
24518;DHT22;12678;51.336;12.406;2023-05-31T00:36:02;14.80;90.30
24518;DHT22;12678;51.336;12.406;2023-05-31T00:38:28;14.70;90.40
24518;DHT22;12678;51.336;12.406;2023-05-31T00:40:54;14.70;90.50
24518;DHT22;12678;51.336;12.406;2023-05-31T00:43:19;14.70;90.40
24518;DHT22;12678;51.336;12.406;2023-05-31T00:45:45;14.70;90.30
24518;DHT22;12678;51.336;12.406;2023-05-31T00:48:11;14.60;90.40
24518;DHT22;12678;51.336;12.406;2023-05-31T00:50:37;14.60;90.50
24518;DHT22;12678;51.336;12.406;2023-05-31T00:53:04;14.60;90.60
24518;DHT22;12678;51.336;12.406;2023-05-31T00:55:30;14.50;90.70
24518;DHT22;12678;51.336;12.406;2023-05-31T00:57:57;14.50;90.90
24518;DHT22;12678;51.336;12.406;2023-05-31T01:00:23;14.50;91.00
24518;DHT22;12678;51.336;12.406;2023-05-31T01:02:50;14.60;90.80
24518;DHT22;12678;51.336;12.406;2023-05-31T01:05:17;14.60;91.00
24518;DHT22;12678;51.336;12.406;2023-05-31T01:07:43;14.60;91.00
24518;DHT22;12678;51.336;12.406;2023-05-31T01:10:09;14.60;90.90
24518;DHT22;12678;51.336;12.406;2023-05-31T01:15:23;14.60;91.00
24518;DHT22;12678;51.336;12.406;2023-05-31T01:20:30;14.50;91.40
24518;DHT22;12678;51.336;12.406;2023-05-31T01:23:20;14.50;91.60
24518;DHT22;12678;51.336;12.406;2023-05-31T01:28:30;14.50;91.80
24518;DHT22;12678;51.336;12.406;2023-05-31T01:31:02;14.30;91.80
24518;DHT22;12678;51.336;12.406;2023-05-31T01:33:28;14.30;92.10
24518;DHT22;12678;51.336;12.406;2023-05-31T01:35:54;14.20;92.20
24518;DHT22;12678;51.336;12.406;2023-05-31T01:38:20;14.10;92.70
24518;DHT22;12678;51.336;12.406;2023-05-31T01:40:45;14.10;93.10
24518;DHT22;12678;51.336;12.406;2023-05-31T01:43:11;14.20;93.50
24518;DHT22;12678;51.336;12.406;2023-05-31T01:45:38;14.20;93.50
24518;DHT22;12678;51.336;12.406;2023-05-31T01:48:06;14.10;94.50
24518;DHT22;12678;51.336;12.406;2023-05-31T01:50:34;14.10;94.40
24518;DHT22;12678;51.336;12.406;2023-05-31T01:53:00;14.20;94.10
24518;DHT22;12678;51.336;12.406;2023-05-31T01:55:26;14.20;95.30
24518;DHT22;12678;51.336;12.406;2023-05-31T01:57:53;14.20;95.00
24518;DHT22;12678;51.336;12.406;2023-05-31T02:00:20;14.20;95.20
24518;DHT22;12678;51.336;12.406;2023-05-31T02:02:47;14.20;96.10
24518;DHT22;12678;51.336;12.406;2023-05-31T02:05:12;14.10;95.10
24518;DHT22;12678;51.336;12.406;2023-05-31T02:07:40;13.90;95.30
24518;DHT22;12678;51.336;12.406;2023-05-31T02:10:07;13.80;96.00
24518;DHT22;12678;51.336;12.406;2023-05-31T02:12:33;13.80;96.00
24518;DHT22;12678;51.336;12.406;2023-05-31T02:14:59;13.80;96.20
24518;DHT22;12678;51.336;12.406;2023-05-31T02:17:25;13.70;96.60
24518;DHT22;12678;51.336;12.406;2023-05-31T02:19:51;13.60;97.00
24518;DHT22;12678;51.336;12.406;2023-05-31T02:22:17;13.70;97.80
24518;DHT22;12678;51.336;12.406;2023-05-31T02:24:43;13.60;98.00
24518;DHT22;12678;51.336;12.406;2023-05-31T02:27:09;13.60;98.60
24518;DHT22;12678;51.336;12.406;2023-05-31T02:29:35;13.60;99.50
24518;DHT22;12678;51.336;12.406;2023-05-31T02:32:01;13.60;98.70
24518;DHT22;12678;51.336;12.406;2023-05-31T02:34:27;13.50;98.60
24518;DHT22;12678;51.336;12.406;2023-05-31T02:36:52;13.50;98.90
24518;DHT22;12678;51.336;12.406;2023-05-31T02:39:18;13.50;99.20
24518;DHT22;12678;51.336;12.406;2023-05-31T02:41:44;13.50;99.90
24518;DHT22;12678;51.336;12.406;2023-05-31T02:44:10;13.50;99.90
24518;DHT22;12678;51.336;12.406;2023-05-31T02:46:35;13.60;99.90
24518;DHT22;12678;51.336;12.406;2023-05-31T02:49:01;13.60;99.90
24518;DHT22;12678;51.336;12.406;2023-05-31T02:51:27;13.50;99.90
24518;DHT22;12678;51.336;12.406;2023-05-31T02:53:53;13.50;99.90
24518;DHT22;12678;51.336;12.406;2023-05-31T02:56:19;13.60;99.90
24518;DHT22;12678;51.336;12.406;2023-05-31T02:58:45;13.60;99.90
24518;DHT22;12678;51.336;12.406;2023-05-31T03:01:11;13.50;99.90
24518;DHT22;12678;51.336;12.406;2023-05-31T03:03:39;13.60;99.90
24518;DHT22;12678;51.336;12.406;2023-05-31T03:06:05;13.50;99.90
24518;DHT22;12678;51.336;12.406;2023-05-31T03:08:31;13.40;99.90
24518;DHT22;12678;51.336;12.406;2023-05-31T03:10:57;13.30;99.90
24518;DHT22;12678;51.336;12.406;2023-05-31T03:13:22;13.30;99.90
24518;DHT22;12678;51.336;12.406;2023-05-31T03:15:48;13.30;99.90
24518;DHT22;12678;51.336;12.406;2023-05-31T03:18:14;13.30;99.90
24518;DHT22;12678;51.336;12.406;2023-05-31T03:20:40;13.30;99.90
24518;DHT22;12678;51.336;12.406;2023-05-31T03:23:06;13.40;99.90
24518;DHT22;12678;51.336;12.406;2023-05-31T03:25:33;13.30;99.90
24518;DHT22;12678;51.336;12.406;2023-05-31T03:27:58;13.30;99.90
24518;DHT22;12678;51.336;12.406;2023-05-31T03:30:24;13.20;99.90
24518;DHT22;12678;51.336;12.406;2023-05-31T03:32:50;13.30;99.90
24518;DHT22;12678;51.336;12.406;2023-05-31T03:35:16;13.30;99.90
24518;DHT22;12678;51.336;12.406;2023-05-31T03:37:42;13.20;99.90
24518;DHT22;12678;51.336;12.406;2023-05-31T03:40:08;13.20;99.90
24518;DHT22;12678;51.336;12.406;2023-05-31T03:42:34;13.10;99.90
24518;DHT22;12678;51.336;12.406;2023-05-31T03:45:01;13.10;99.90
24518;DHT22;12678;51.336;12.406;2023-05-31T03:47:26;13.20;99.90
24518;DHT22;12678;51.336;12.406;2023-05-31T03:49:52;13.30;99.90
24518;DHT22;12678;51.336;12.406;2023-05-31T03:52:18;13.20;99.90
24518;DHT22;12678;51.336;12.406;2023-05-31T03:54:44;13.30;99.90
24518;DHT22;12678;51.336;12.406;2023-05-31T03:57:09;13.50;99.90
24518;DHT22;12678;51.336;12.406;2023-05-31T03:59:35;13.40;99.90
24518;DHT22;12678;51.336;12.406;2023-05-31T04:02:01;13.40;99.90
24518;DHT22;12678;51.336;12.406;2023-05-31T04:04:29;13.30;99.90
24518;DHT22;12678;51.336;12.406;2023-05-31T04:06:54;13.30;99.90
24518;DHT22;12678;51.336;12.406;2023-05-31T04:09:20;13.30;99.90
24518;DHT22;12678;51.336;12.406;2023-05-31T04:11:46;13.30;99.90
24518;DHT22;12678;51.336;12.406;2023-05-31T04:14:12;13.40;99.90
24518;DHT22;12678;51.336;12.406;2023-05-31T04:16:37;13.50;99.90
24518;DHT22;12678;51.336;12.406;2023-05-31T04:19:03;13.60;99.90
24518;DHT22;12678;51.336;12.406;2023-05-31T04:21:29;13.60;99.90
24518;DHT22;12678;51.336;12.406;2023-05-31T04:23:56;13.70;99.90
24518;DHT22;12678;51.336;12.406;2023-05-31T04:26:21;13.80;99.90
24518;DHT22;12678;51.336;12.406;2023-05-31T04:28:47;13.80;99.90
24518;DHT22;12678;51.336;12.406;2023-05-31T04:31:19;14.00;99.90
24518;DHT22;12678;51.336;12.406;2023-05-31T04:33:45;14.10;99.90
24518;DHT22;12678;51.336;12.406;2023-05-31T04:36:10;14.20;99.90
24518;DHT22;12678;51.336;12.406;2023-05-31T04:38:37;14.40;99.90
24518;DHT22;12678;51.336;12.406;2023-05-31T04:41:04;14.70;99.90
24518;DHT22;12678;51.336;12.406;2023-05-31T04:43:30;15.20;99.90
24518;DHT22;12678;51.336;12.406;2023-05-31T04:45:55;16.00;99.90
24518;DHT22;12678;51.336;12.406;2023-05-31T04:48:21;16.90;99.50
24518;DHT22;12678;51.336;12.406;2023-05-31T04:50:48;17.90;97.60
24518;DHT22;12678;51.336;12.406;2023-05-31T04:53:14;18.50;96.10
24518;DHT22;12678;51.336;12.406;2023-05-31T04:55:40;19.30;94.10
24518;DHT22;12678;51.336;12.406;2023-05-31T04:58:06;20.10;92.40
24518;DHT22;12678;51.336;12.406;2023-05-31T05:00:34;20.30;90.20
24518;DHT22;12678;51.336;12.406;2023-05-31T05:03:00;20.80;90.10
24518;DHT22;12678;51.336;12.406;2023-05-31T05:05:26;21.00;87.60
24518;DHT22;12678;51.336;12.406;2023-05-31T05:07:52;21.20;87.00
24518;DHT22;12678;51.336;12.406;2023-05-31T05:10:17;21.80;85.40
24518;DHT22;12678;51.336;12.406;2023-05-31T05:12:43;22.00;83.20
24518;DHT22;12678;51.336;12.406;2023-05-31T05:15:09;22.20;81.20
24518;DHT22;12678;51.336;12.406;2023-05-31T05:17:35;22.60;78.60
24518;DHT22;12678;51.336;12.406;2023-05-31T05:20:02;23.00;77.70
24518;DHT22;12678;51.336;12.406;2023-05-31T05:22:30;22.90;77.40
24518;DHT22;12678;51.336;12.406;2023-05-31T05:24:56;23.20;76.70
24518;DHT22;12678;51.336;12.406;2023-05-31T05:27:22;23.20;76.00
24518;DHT22;12678;51.336;12.406;2023-05-31T05:29:47;23.30;75.00
24518;DHT22;12678;51.336;12.406;2023-05-31T05:32:13;22.60;75.80
24518;DHT22;12678;51.336;12.406;2023-05-31T05:34:38;22.30;76.30
24518;DHT22;12678;51.336;12.406;2023-05-31T05:37:04;22.40;76.30
24518;DHT22;12678;51.336;12.406;2023-05-31T05:39:30;21.90;77.50
24518;DHT22;12678;51.336;12.406;2023-05-31T05:41:56;21.40;79.10
24518;DHT22;12678;51.336;12.406;2023-05-31T05:44:23;21.40;80.10
24518;DHT22;12678;51.336;12.406;2023-05-31T05:46:49;21.60;80.00
24518;DHT22;12678;51.336;12.406;2023-05-31T05:49:15;21.80;79.00
24518;DHT22;12678;51.336;12.406;2023-05-31T05:51:40;22.10;78.40
24518;DHT22;12678;51.336;12.406;2023-05-31T05:54:06;22.50;76.70
24518;DHT22;12678;51.336;12.406;2023-05-31T05:56:32;22.80;76.20
24518;DHT22;12678;51.336;12.406;2023-05-31T05:58:58;22.70;75.40
24518;DHT22;12678;51.336;12.406;2023-05-31T06:01:24;22.30;76.50
24518;DHT22;12678;51.336;12.406;2023-05-31T06:03:52;21.80;77.90
24518;DHT22;12678;51.336;12.406;2023-05-31T06:06:18;21.80;78.70
24518;DHT22;12678;51.336;12.406;2023-05-31T06:08:45;21.80;78.40
24518;DHT22;12678;51.336;12.406;2023-05-31T06:11:11;21.40;79.20
24518;DHT22;12678;51.336;12.406;2023-05-31T06:13:37;21.20;80.80
24518;DHT22;12678;51.336;12.406;2023-05-31T06:16:04;20.70;82.20
24518;DHT22;12678;51.336;12.406;2023-05-31T06:18:30;20.30;83.70
24518;DHT22;12678;51.336;12.406;2023-05-31T06:20:56;19.90;84.40
24518;DHT22;12678;51.336;12.406;2023-05-31T06:23:22;19.80;85.90
24518;DHT22;12678;51.336;12.406;2023-05-31T06:25:47;19.70;85.80
24518;DHT22;12678;51.336;12.406;2023-05-31T06:28:13;19.50;87.40
24518;DHT22;12678;51.336;12.406;2023-05-31T06:30:39;19.50;88.50
24518;DHT22;12678;51.336;12.406;2023-05-31T06:33:05;19.30;88.00
24518;DHT22;12678;51.336;12.406;2023-05-31T06:35:31;19.20;89.20
24518;DHT22;12678;51.336;12.406;2023-05-31T06:37:56;19.20;89.80
24518;DHT22;12678;51.336;12.406;2023-05-31T06:40:22;19.20;89.70
24518;DHT22;12678;51.336;12.406;2023-05-31T06:42:49;19.40;90.10
24518;DHT22;12678;51.336;12.406;2023-05-31T06:45:15;19.70;89.40
24518;DHT22;12678;51.336;12.406;2023-05-31T06:47:41;20.30;88.00
24518;DHT22;12678;51.336;12.406;2023-05-31T06:50:06;20.80;86.20
24518;DHT22;12678;51.336;12.406;2023-05-31T06:52:32;21.60;85.50
24518;DHT22;12678;51.336;12.406;2023-05-31T06:54:58;22.60;81.40
24518;DHT22;12678;51.336;12.406;2023-05-31T06:57:24;23.20;78.90
24518;DHT22;12678;51.336;12.406;2023-05-31T06:59:50;23.90;76.20
24518;DHT22;12678;51.336;12.406;2023-05-31T07:02:16;24.10;75.40
24518;DHT22;12678;51.336;12.406;2023-05-31T07:04:41;24.40;74.50
24518;DHT22;12678;51.336;12.406;2023-05-31T07:07:07;24.70;73.50
24518;DHT22;12678;51.336;12.406;2023-05-31T07:09:34;25.10;71.80
24518;DHT22;12678;51.336;12.406;2023-05-31T07:12:00;25.20;70.70
24518;DHT22;12678;51.336;12.406;2023-05-31T07:14:30;25.30;69.90
24518;DHT22;12678;51.336;12.406;2023-05-31T07:16:55;25.20;70.00
24518;DHT22;12678;51.336;12.406;2023-05-31T07:19:21;25.40;69.50
24518;DHT22;12678;51.336;12.406;2023-05-31T07:21:46;25.30;69.60
24518;DHT22;12678;51.336;12.406;2023-05-31T07:24:12;25.60;69.00
24518;DHT22;12678;51.336;12.406;2023-05-31T07:26:38;25.30;69.50
24518;DHT22;12678;51.336;12.406;2023-05-31T07:29:03;25.10;69.10
24518;DHT22;12678;51.336;12.406;2023-05-31T07:31:29;24.70;69.60
24518;DHT22;12678;51.336;12.406;2023-05-31T07:33:55;24.50;70.40
24518;DHT22;12678;51.336;12.406;2023-05-31T07:36:21;24.20;69.90
24518;DHT22;12678;51.336;12.406;2023-05-31T07:38:51;23.50;71.40
24518;DHT22;12678;51.336;12.406;2023-05-31T07:41:18;23.50;71.20
24518;DHT22;12678;51.336;12.406;2023-05-31T07:43:43;23.70;70.50
24518;DHT22;12678;51.336;12.406;2023-05-31T07:46:11;23.30;70.30
24518;DHT22;12678;51.336;12.406;2023-05-31T07:48:37;23.20;72.00
24518;DHT22;12678;51.336;12.406;2023-05-31T07:51:03;23.00;72.60
24518;DHT22;12678;51.336;12.406;2023-05-31T07:53:29;23.00;72.30
24518;DHT22;12678;51.336;12.406;2023-05-31T07:55:55;22.90;73.30
24518;DHT22;12678;51.336;12.406;2023-05-31T07:58:20;23.00;72.80
24518;DHT22;12678;51.336;12.406;2023-05-31T08:00:46;23.10;72.60
24518;DHT22;12678;51.336;12.406;2023-05-31T08:03:12;23.30;72.60
24518;DHT22;12678;51.336;12.406;2023-05-31T08:05:38;23.70;73.00
24518;DHT22;12678;51.336;12.406;2023-05-31T08:08:04;24.10;71.80
24518;DHT22;12678;51.336;12.406;2023-05-31T08:10:31;24.50;70.60
24518;DHT22;12678;51.336;12.406;2023-05-31T08:12:57;24.80;69.30
24518;DHT22;12678;51.336;12.406;2023-05-31T08:15:22;25.00;68.60
24518;DHT22;12678;51.336;12.406;2023-05-31T08:17:48;25.30;67.60
24518;DHT22;12678;51.336;12.406;2023-05-31T08:20:14;25.40;67.50
24518;DHT22;12678;51.336;12.406;2023-05-31T08:22:42;25.80;66.00
24518;DHT22;12678;51.336;12.406;2023-05-31T08:25:10;26.10;64.90
24518;DHT22;12678;51.336;12.406;2023-05-31T08:27:39;26.00;65.00
24518;DHT22;12678;51.336;12.406;2023-05-31T08:30:08;26.10;64.00
24518;DHT22;12678;51.336;12.406;2023-05-31T08:32:35;26.00;62.60
24518;DHT22;12678;51.336;12.406;2023-05-31T08:35:00;26.30;63.80
24518;DHT22;12678;51.336;12.406;2023-05-31T08:37:26;26.60;62.90
24518;DHT22;12678;51.336;12.406;2023-05-31T08:39:51;26.60;63.30
24518;DHT22;12678;51.336;12.406;2023-05-31T08:42:51;26.40;63.20
24518;DHT22;12678;51.336;12.406;2023-05-31T08:45:18;26.50;61.70
24518;DHT22;12678;51.336;12.406;2023-05-31T08:47:45;26.70;62.50
24518;DHT22;12678;51.336;12.406;2023-05-31T08:50:16;26.50;62.30
24518;DHT22;12678;51.336;12.406;2023-05-31T08:52:43;26.80;61.50
24518;DHT22;12678;51.336;12.406;2023-05-31T08:55:10;26.70;61.40
24518;DHT22;12678;51.336;12.406;2023-05-31T08:57:37;26.80;62.10
24518;DHT22;12678;51.336;12.406;2023-05-31T09:00:04;26.70;61.80
24518;DHT22;12678;51.336;12.406;2023-05-31T09:02:37;26.70;60.90
24518;DHT22;12678;51.336;12.406;2023-05-31T09:05:02;26.70;60.80
24518;DHT22;12678;51.336;12.406;2023-05-31T09:07:29;26.60;61.60
24518;DHT22;12678;51.336;12.406;2023-05-31T09:09:55;26.40;61.70
24518;DHT22;12678;51.336;12.406;2023-05-31T09:12:21;26.50;61.00
24518;DHT22;12678;51.336;12.406;2023-05-31T09:14:47;26.60;61.80
24518;DHT22;12678;51.336;12.406;2023-05-31T09:17:13;26.60;61.30
24518;DHT22;12678;51.336;12.406;2023-05-31T09:19:50;26.50;61.50
24518;DHT22;12678;51.336;12.406;2023-05-31T09:22:17;26.70;61.60
24518;DHT22;12678;51.336;12.406;2023-05-31T09:25:09;26.80;61.90
24518;DHT22;12678;51.336;12.406;2023-05-31T09:27:39;26.80;61.90
24518;DHT22;12678;51.336;12.406;2023-05-31T09:30:13;26.80;61.90
24518;DHT22;12678;51.336;12.406;2023-05-31T09:32:39;26.30;62.50
24518;DHT22;12678;51.336;12.406;2023-05-31T09:35:16;26.10;63.20
24518;DHT22;12678;51.336;12.406;2023-05-31T09:37:45;26.30;63.50
24518;DHT22;12678;51.336;12.406;2023-05-31T09:40:16;26.40;63.20
24518;DHT22;12678;51.336;12.406;2023-05-31T09:42:50;26.60;60.70
24518;DHT22;12678;51.336;12.406;2023-05-31T09:45:17;26.50;59.70
24518;DHT22;12678;51.336;12.406;2023-05-31T09:47:44;26.20;59.80
24518;DHT22;12678;51.336;12.406;2023-05-31T09:50:11;26.20;59.40
24518;DHT22;12678;51.336;12.406;2023-05-31T09:52:37;26.10;59.90
24518;DHT22;12678;51.336;12.406;2023-05-31T09:55:07;26.20;59.40
24518;DHT22;12678;51.336;12.406;2023-05-31T09:57:38;26.30;59.60
24518;DHT22;12678;51.336;12.406;2023-05-31T10:00:07;26.20;59.60
24518;DHT22;12678;51.336;12.406;2023-05-31T10:02:44;26.10;58.90
24518;DHT22;12678;51.336;12.406;2023-05-31T10:05:14;26.30;58.70
24518;DHT22;12678;51.336;12.406;2023-05-31T10:07:41;26.30;55.30
24518;DHT22;12678;51.336;12.406;2023-05-31T10:10:07;25.80;55.50
24518;DHT22;12678;51.336;12.406;2023-05-31T10:15:17;25.90;57.10
24518;DHT22;12678;51.336;12.406;2023-05-31T10:17:49;25.50;57.70
24518;DHT22;12678;51.336;12.406;2023-05-31T10:20:16;25.60;58.10
24518;DHT22;12678;51.336;12.406;2023-05-31T10:22:44;25.60;58.50
24518;DHT22;12678;51.336;12.406;2023-05-31T10:25:24;25.60;58.40
24518;DHT22;12678;51.336;12.406;2023-05-31T10:27:51;25.50;57.90
24518;DHT22;12678;51.336;12.406;2023-05-31T10:30:19;25.60;59.10
24518;DHT22;12678;51.336;12.406;2023-05-31T10:32:58;25.90;59.50
24518;DHT22;12678;51.336;12.406;2023-05-31T10:35:25;26.00;58.70
24518;DHT22;12678;51.336;12.406;2023-05-31T10:37:52;25.40;58.40
24518;DHT22;12678;51.336;12.406;2023-05-31T10:40:36;25.70;58.80
24518;DHT22;12678;51.336;12.406;2023-05-31T10:43:09;25.80;58.40
24518;DHT22;12678;51.336;12.406;2023-05-31T10:45:40;25.90;57.30
24518;DHT22;12678;51.336;12.406;2023-05-31T10:48:30;25.80;57.00
24518;DHT22;12678;51.336;12.406;2023-05-31T10:51:03;25.70;57.10
24518;DHT22;12678;51.336;12.406;2023-05-31T10:53:32;25.80;56.80
24518;DHT22;12678;51.336;12.406;2023-05-31T10:56:10;25.80;57.80
24518;DHT22;12678;51.336;12.406;2023-05-31T10:58:36;25.80;58.10
24518;DHT22;12678;51.336;12.406;2023-05-31T11:01:04;25.80;57.80
24518;DHT22;12678;51.336;12.406;2023-05-31T11:03:33;25.90;57.40
24518;DHT22;12678;51.336;12.406;2023-05-31T11:06:02;26.00;57.20
24518;DHT22;12678;51.336;12.406;2023-05-31T11:08:32;26.10;57.70
24518;DHT22;12678;51.336;12.406;2023-05-31T11:14:00;25.60;58.20
24518;DHT22;12678;51.336;12.406;2023-05-31T11:16:27;25.70;58.00
24518;DHT22;12678;51.336;12.406;2023-05-31T11:19:06;25.70;57.20
24518;DHT22;12678;51.336;12.406;2023-05-31T11:24:38;25.40;57.50
24518;DHT22;12678;51.336;12.406;2023-05-31T11:27:11;25.60;57.30
24518;DHT22;12678;51.336;12.406;2023-05-31T11:34:54;25.80;58.10
24518;DHT22;12678;51.336;12.406;2023-05-31T11:37:26;26.00;57.40
24518;DHT22;12678;51.336;12.406;2023-05-31T11:39:53;26.10;57.40
24518;DHT22;12678;51.336;12.406;2023-05-31T11:42:20;26.20;56.00
24518;DHT22;12678;51.336;12.406;2023-05-31T11:44:46;26.10;55.70
24518;DHT22;12678;51.336;12.406;2023-05-31T11:47:25;26.10;54.90
24518;DHT22;12678;51.336;12.406;2023-05-31T11:49:51;25.70;54.80
24518;DHT22;12678;51.336;12.406;2023-05-31T11:52:20;25.70;55.70
24518;DHT22;12678;51.336;12.406;2023-05-31T11:54:48;25.70;56.20
24518;DHT22;12678;51.336;12.406;2023-05-31T11:57:15;25.50;56.20
24518;DHT22;12678;51.336;12.406;2023-05-31T11:59:46;25.50;55.70
24518;DHT22;12678;51.336;12.406;2023-05-31T12:02:12;25.60;55.50
24518;DHT22;12678;51.336;12.406;2023-05-31T12:04:42;25.50;56.50
24518;DHT22;12678;51.336;12.406;2023-05-31T12:07:12;25.60;56.90
24518;DHT22;12678;51.336;12.406;2023-05-31T12:09:40;25.30;57.10
24518;DHT22;12678;51.336;12.406;2023-05-31T12:12:06;25.40;57.40
24518;DHT22;12678;51.336;12.406;2023-05-31T12:14:32;25.50;57.70
24518;DHT22;12678;51.336;12.406;2023-05-31T12:17:03;25.30;57.80
24518;DHT22;12678;51.336;12.406;2023-05-31T12:19:29;25.30;57.80
24518;DHT22;12678;51.336;12.406;2023-05-31T12:21:55;25.20;58.30
24518;DHT22;12678;51.336;12.406;2023-05-31T12:24:21;25.30;58.10
24518;DHT22;12678;51.336;12.406;2023-05-31T12:26:47;25.20;58.40
24518;DHT22;12678;51.336;12.406;2023-05-31T12:29:18;25.40;59.00
24518;DHT22;12678;51.336;12.406;2023-05-31T12:31:44;25.30;58.30
24518;DHT22;12678;51.336;12.406;2023-05-31T12:34:17;25.40;58.20
24518;DHT22;12678;51.336;12.406;2023-05-31T12:36:48;25.40;57.90
24518;DHT22;12678;51.336;12.406;2023-05-31T12:39:22;25.50;58.00
24518;DHT22;12678;51.336;12.406;2023-05-31T12:41:52;25.40;58.40
24518;DHT22;12678;51.336;12.406;2023-05-31T12:44:20;25.30;58.50
24518;DHT22;12678;51.336;12.406;2023-05-31T12:46:47;25.00;59.20
24518;DHT22;12678;51.336;12.406;2023-05-31T12:49:18;24.80;59.70
24518;DHT22;12678;51.336;12.406;2023-05-31T12:51:43;24.90;59.60
24518;DHT22;12678;51.336;12.406;2023-05-31T12:54:13;25.00;59.30
24518;DHT22;12678;51.336;12.406;2023-05-31T12:56:41;25.00;59.30
24518;DHT22;12678;51.336;12.406;2023-05-31T12:59:07;24.90;59.30
24518;DHT22;12678;51.336;12.406;2023-05-31T13:01:35;25.00;59.30
24518;DHT22;12678;51.336;12.406;2023-05-31T13:04:00;25.10;59.60
24518;DHT22;12678;51.336;12.406;2023-05-31T13:06:26;25.10;59.20
24518;DHT22;12678;51.336;12.406;2023-05-31T13:08:52;25.10;59.30
24518;DHT22;12678;51.336;12.406;2023-05-31T13:11:18;25.10;59.60
24518;DHT22;12678;51.336;12.406;2023-05-31T13:13:43;25.30;59.60
24518;DHT22;12678;51.336;12.406;2023-05-31T13:16:12;25.50;59.20
24518;DHT22;12678;51.336;12.406;2023-05-31T13:18:38;25.20;58.80
24518;DHT22;12678;51.336;12.406;2023-05-31T13:21:03;25.20;59.10
24518;DHT22;12678;51.336;12.406;2023-05-31T13:23:29;25.10;59.20
24518;DHT22;12678;51.336;12.406;2023-05-31T13:25:55;25.20;59.10
24518;DHT22;12678;51.336;12.406;2023-05-31T13:28:20;25.10;59.10
24518;DHT22;12678;51.336;12.406;2023-05-31T13:30:54;25.20;58.90
24518;DHT22;12678;51.336;12.406;2023-05-31T13:33:20;25.20;59.10
24518;DHT22;12678;51.336;12.406;2023-05-31T13:35:46;25.30;59.60
24518;DHT22;12678;51.336;12.406;2023-05-31T13:38:11;25.40;60.10
24518;DHT22;12678;51.336;12.406;2023-05-31T13:40:37;25.40;59.30
24518;DHT22;12678;51.336;12.406;2023-05-31T13:43:04;25.40;59.60
24518;DHT22;12678;51.336;12.406;2023-05-31T13:45:30;25.40;59.20
24518;DHT22;12678;51.336;12.406;2023-05-31T13:47:56;25.50;58.50
24518;DHT22;12678;51.336;12.406;2023-05-31T13:50:22;25.60;58.60
24518;DHT22;12678;51.336;12.406;2023-05-31T13:52:48;25.50;58.20
24518;DHT22;12678;51.336;12.406;2023-05-31T13:55:13;25.60;58.90
24518;DHT22;12678;51.336;12.406;2023-05-31T13:57:39;25.60;58.90
24518;DHT22;12678;51.336;12.406;2023-05-31T14:00:05;25.60;59.10
24518;DHT22;12678;51.336;12.406;2023-05-31T14:02:31;25.70;58.50
24518;DHT22;12678;51.336;12.406;2023-05-31T14:04:57;25.70;58.50
24518;DHT22;12678;51.336;12.406;2023-05-31T14:07:23;25.60;58.80
24518;DHT22;12678;51.336;12.406;2023-05-31T14:09:50;25.60;58.90
24518;DHT22;12678;51.336;12.406;2023-05-31T14:12:16;25.30;58.70
24518;DHT22;12678;51.336;12.406;2023-05-31T14:14:41;25.40;58.60
24518;DHT22;12678;51.336;12.406;2023-05-31T14:17:07;25.50;58.00
24518;DHT22;12678;51.336;12.406;2023-05-31T14:19:33;25.60;57.80
24518;DHT22;12678;51.336;12.406;2023-05-31T14:21:58;25.40;58.10
24518;DHT22;12678;51.336;12.406;2023-05-31T14:24:24;25.40;58.10
24518;DHT22;12678;51.336;12.406;2023-05-31T14:26:50;25.50;57.60
24518;DHT22;12678;51.336;12.406;2023-05-31T14:29:15;25.50;57.50
24518;DHT22;12678;51.336;12.406;2023-05-31T14:31:41;25.50;57.40
24518;DHT22;12678;51.336;12.406;2023-05-31T14:34:07;25.50;57.10
24518;DHT22;12678;51.336;12.406;2023-05-31T14:36:33;25.40;57.60
24518;DHT22;12678;51.336;12.406;2023-05-31T14:38:59;25.40;58.20
24518;DHT22;12678;51.336;12.406;2023-05-31T14:41:25;25.20;58.10
24518;DHT22;12678;51.336;12.406;2023-05-31T14:43:51;25.00;57.90
24518;DHT22;12678;51.336;12.406;2023-05-31T14:46:17;25.00;57.50
24518;DHT22;12678;51.336;12.406;2023-05-31T14:48:43;24.90;57.40
24518;DHT22;12678;51.336;12.406;2023-05-31T14:51:09;24.70;58.50
24518;DHT22;12678;51.336;12.406;2023-05-31T14:53:34;24.70;58.90
24518;DHT22;12678;51.336;12.406;2023-05-31T14:56:00;24.70;59.20
24518;DHT22;12678;51.336;12.406;2023-05-31T14:58:26;24.70;59.90
24518;DHT22;12678;51.336;12.406;2023-05-31T15:00:54;24.80;58.90
24518;DHT22;12678;51.336;12.406;2023-05-31T15:03:19;24.90;58.70
24518;DHT22;12678;51.336;12.406;2023-05-31T15:05:45;24.90;58.90
24518;DHT22;12678;51.336;12.406;2023-05-31T15:08:11;25.00;58.30
24518;DHT22;12678;51.336;12.406;2023-05-31T15:10:37;25.10;58.40
24518;DHT22;12678;51.336;12.406;2023-05-31T15:13:02;25.10;58.40
24518;DHT22;12678;51.336;12.406;2023-05-31T15:15:28;25.10;58.10
24518;DHT22;12678;51.336;12.406;2023-05-31T15:17:54;25.10;58.10
24518;DHT22;12678;51.336;12.406;2023-05-31T15:20:20;25.10;58.30
24518;DHT22;12678;51.336;12.406;2023-05-31T15:22:46;25.00;58.60
24518;DHT22;12678;51.336;12.406;2023-05-31T15:25:12;25.00;58.60
24518;DHT22;12678;51.336;12.406;2023-05-31T15:27:37;24.90;58.90
24518;DHT22;12678;51.336;12.406;2023-05-31T15:30:03;24.80;57.70
24518;DHT22;12678;51.336;12.406;2023-05-31T15:32:29;24.60;57.80
24518;DHT22;12678;51.336;12.406;2023-05-31T15:34:55;24.60;57.70
24518;DHT22;12678;51.336;12.406;2023-05-31T15:37:20;24.50;57.80